sensor_id;sensor_type;location;lat;lon;timestamp;temperature;humidity
3334;DHT22;1679;50.392;8.008;2023-04-24T00:02:23;10.50;99.90
3334;DHT22;1679;50.392;8.008;2023-04-24T00:04:49;10.50;99.90
3334;DHT22;1679;50.392;8.008;2023-04-24T00:07:15;10.50;99.90
3334;DHT22;1679;50.392;8.008;2023-04-24T00:09:46;10.50;99.90
3334;DHT22;1679;50.392;8.008;2023-04-24T00:12:12;10.60;99.90
3334;DHT22;1679;50.392;8.008;2023-04-24T00:14:38;10.60;99.90
3334;DHT22;1679;50.392;8.008;2023-04-24T00:17:03;10.60;99.90
3334;DHT22;1679;50.392;8.008;2023-04-24T00:19:29;10.60;99.90
3334;DHT22;1679;50.392;8.008;2023-04-24T00:21:55;10.60;99.90
3334;DHT22;1679;50.392;8.008;2023-04-24T00:24:21;10.70;99.90
3334;DHT22;1679;50.392;8.008;2023-04-24T00:26:46;10.70;99.90
3334;DHT22;1679;50.392;8.008;2023-04-24T00:29:12;10.70;99.90
3334;DHT22;1679;50.392;8.008;2023-04-24T00:31:37;10.70;99.90
3334;DHT22;1679;50.392;8.008;2023-04-24T00:34:03;10.70;99.90
3334;DHT22;1679;50.392;8.008;2023-04-24T00:36:30;10.80;99.90
3334;DHT22;1679;50.392;8.008;2023-04-24T00:38:56;10.80;99.90
3334;DHT22;1679;50.392;8.008;2023-04-24T00:41:22;10.80;99.90
3334;DHT22;1679;50.392;8.008;2023-04-24T00:43:47;10.70;99.90
3334;DHT22;1679;50.392;8.008;2023-04-24T00:46:14;10.70;99.90
3334;DHT22;1679;50.392;8.008;2023-04-24T00:48:39;10.70;99.90
3334;DHT22;1679;50.392;8.008;2023-04-24T00:51:06;10.70;99.90
3334;DHT22;1679;50.392;8.008;2023-04-24T00:53:31;10.70;99.90
3334;DHT22;1679;50.392;8.008;2023-04-24T00:55:58;10.70;99.90
3334;DHT22;1679;50.392;8.008;2023-04-24T00:58:24;10.70;99.90
3334;DHT22;1679;50.392;8.008;2023-04-24T01:00:50;10.70;99.90
3334;DHT22;1679;50.392;8.008;2023-04-24T01:03:20;10.70;99.90
3334;DHT22;1679;50.392;8.008;2023-04-24T01:05:46;10.70;99.90
3334;DHT22;1679;50.392;8.008;2023-04-24T01:08:13;10.70;99.90
3334;DHT22;1679;50.392;8.008;2023-04-24T01:10:41;10.80;99.90
3334;DHT22;1679;50.392;8.008;2023-04-24T01:13:08;10.80;99.90
3334;DHT22;1679;50.392;8.008;2023-04-24T01:15:34;10.80;99.90
3334;DHT22;1679;50.392;8.008;2023-04-24T01:18:00;10.80;99.90
3334;DHT22;1679;50.392;8.008;2023-04-24T01:20:25;10.80;99.90
3334;DHT22;1679;50.392;8.008;2023-04-24T01:22:51;10.80;99.90
3334;DHT22;1679;50.392;8.008;2023-04-24T01:25:18;10.80;99.90
3334;DHT22;1679;50.392;8.008;2023-04-24T01:27:43;10.80;99.90
3334;DHT22;1679;50.392;8.008;2023-04-24T01:30:10;10.80;99.90
3334;DHT22;1679;50.392;8.008;2023-04-24T01:32:36;10.80;99.90
3334;DHT22;1679;50.392;8.008;2023-04-24T01:35:02;10.80;99.90
3334;DHT22;1679;50.392;8.008;2023-04-24T01:37:28;10.80;99.90
3334;DHT22;1679;50.392;8.008;2023-04-24T01:39:53;10.80;99.90
3334;DHT22;1679;50.392;8.008;2023-04-24T01:42:19;10.80;99.90
3334;DHT22;1679;50.392;8.008;2023-04-24T01:44:45;10.80;99.90
3334;DHT22;1679;50.392;8.008;2023-04-24T01:47:10;10.80;99.90
3334;DHT22;1679;50.392;8.008;2023-04-24T01:49:38;10.70;99.90
3334;DHT22;1679;50.392;8.008;2023-04-24T01:52:04;10.70;99.90
3334;DHT22;1679;50.392;8.008;2023-04-24T01:54:30;10.70;99.90
3334;DHT22;1679;50.392;8.008;2023-04-24T01:56:55;10.70;99.90
3334;DHT22;1679;50.392;8.008;2023-04-24T01:59:22;10.70;99.90
3334;DHT22;1679;50.392;8.008;2023-04-24T02:01:48;10.60;99.90
3334;DHT22;1679;50.392;8.008;2023-04-24T02:04:14;10.60;99.90
3334;DHT22;1679;50.392;8.008;2023-04-24T02:06:40;10.60;99.90
3334;DHT22;1679;50.392;8.008;2023-04-24T02:09:06;10.50;99.90
3334;DHT22;1679;50.392;8.008;2023-04-24T02:11:31;10.50;99.90
3334;DHT22;1679;50.392;8.008;2023-04-24T02:13:57;10.50;99.90
3334;DHT22;1679;50.392;8.008;2023-04-24T02:16:22;10.50;99.90
3334;DHT22;1679;50.392;8.008;2023-04-24T02:18:48;10.50;99.90
3334;DHT22;1679;50.392;8.008;2023-04-24T02:21:14;10.50;99.90
3334;DHT22;1679;50.392;8.008;2023-04-24T02:23:40;10.50;99.90
3334;DHT22;1679;50.392;8.008;2023-04-24T02:26:05;10.50;99.90
3334;DHT22;1679;50.392;8.008;2023-04-24T02:28:31;10.40;99.90
3334;DHT22;1679;50.392;8.008;2023-04-24T02:30:58;10.40;99.90
3334;DHT22;1679;50.392;8.008;2023-04-24T02:33:24;10.40;99.90
3334;DHT22;1679;50.392;8.008;2023-04-24T02:35:49;10.40;99.90
3334;DHT22;1679;50.392;8.008;2023-04-24T02:38:15;10.30;99.90
3334;DHT22;1679;50.392;8.008;2023-04-24T02:40:40;10.40;99.90
3334;DHT22;1679;50.392;8.008;2023-04-24T02:43:06;10.30;99.90
3334;DHT22;1679;50.392;8.008;2023-04-24T02:45:31;10.30;99.90
3334;DHT22;1679;50.392;8.008;2023-04-24T02:47:57;10.30;99.90
3334;DHT22;1679;50.392;8.008;2023-04-24T02:50:22;10.30;99.90
3334;DHT22;1679;50.392;8.008;2023-04-24T02:52:48;10.30;99.90
3334;DHT22;1679;50.392;8.008;2023-04-24T02:55:13;10.20;99.90
3334;DHT22;1679;50.392;8.008;2023-04-24T02:57:39;10.20;99.90
3334;DHT22;1679;50.392;8.008;2023-04-24T03:00:05;10.20;99.90
3334;DHT22;1679;50.392;8.008;2023-04-24T03:02:32;10.20;99.90
3334;DHT22;1679;50.392;8.008;2023-04-24T03:04:58;10.20;99.90
3334;DHT22;1679;50.392;8.008;2023-04-24T03:07:23;10.20;99.90
3334;DHT22;1679;50.392;8.008;2023-04-24T03:09:51;10.20;99.90
3334;DHT22;1679;50.392;8.008;2023-04-24T03:12:16;10.20;99.90
3334;DHT22;1679;50.392;8.008;2023-04-24T03:14:43;10.10;99.90
3334;DHT22;1679;50.392;8.008;2023-04-24T03:17:08;10.10;99.90
3334;DHT22;1679;50.392;8.008;2023-04-24T03:19:34;10.10;99.90
3334;DHT22;1679;50.392;8.008;2023-04-24T03:22:02;10.10;99.90
3334;DHT22;1679;50.392;8.008;2023-04-24T03:24:27;10.00;99.90
3334;DHT22;1679;50.392;8.008;2023-04-24T03:26:54;10.00;99.90
3334;DHT22;1679;50.392;8.008;2023-04-24T03:29:21;9.90;99.90
3334;DHT22;1679;50.392;8.008;2023-04-24T03:31:47;9.80;99.90
3334;DHT22;1679;50.392;8.008;2023-04-24T03:34:12;9.80;99.90
3334;DHT22;1679;50.392;8.008;2023-04-24T03:36:38;9.70;99.90
3334;DHT22;1679;50.392;8.008;2023-04-24T03:39:03;9.70;99.90
3334;DHT22;1679;50.392;8.008;2023-04-24T03:41:29;9.60;99.90
3334;DHT22;1679;50.392;8.008;2023-04-24T03:43:55;9.50;99.90
3334;DHT22;1679;50.392;8.008;2023-04-24T03:46:21;9.50;99.90
3334;DHT22;1679;50.392;8.008;2023-04-24T03:48:46;9.50;99.90
3334;DHT22;1679;50.392;8.008;2023-04-24T03:51:12;9.40;99.90
3334;DHT22;1679;50.392;8.008;2023-04-24T03:53:37;9.30;99.90
3334;DHT22;1679;50.392;8.008;2023-04-24T03:56:03;9.30;99.90
3334;DHT22;1679;50.392;8.008;2023-04-24T03:58:28;9.20;99.90
3334;DHT22;1679;50.392;8.008;2023-04-24T04:00:54;9.20;99.90
3334;DHT22;1679;50.392;8.008;2023-04-24T04:03:22;9.10;99.90
3334;DHT22;1679;50.392;8.008;2023-04-24T04:05:47;9.10;99.90
3334;DHT22;1679;50.392;8.008;2023-04-24T04:08:13;9.00;99.90
3334;DHT22;1679;50.392;8.008;2023-04-24T04:10:38;9.00;99.90
3334;DHT22;1679;50.392;8.008;2023-04-24T04:13:04;9.00;99.90
3334;DHT22;1679;50.392;8.008;2023-04-24T04:15:31;8.90;99.90
3334;DHT22;1679;50.392;8.008;2023-04-24T04:17:57;8.90;99.90
3334;DHT22;1679;50.392;8.008;2023-04-24T04:20:22;8.80;99.90
3334;DHT22;1679;50.392;8.008;2023-04-24T04:22:48;8.80;99.90
3334;DHT22;1679;50.392;8.008;2023-04-24T04:25:13;8.80;99.90
3334;DHT22;1679;50.392;8.008;2023-04-24T04:27:39;8.80;99.90
3334;DHT22;1679;50.392;8.008;2023-04-24T04:30:07;8.80;99.90
3334;DHT22;1679;50.392;8.008;2023-04-24T04:32:34;8.80;99.90
3334;DHT22;1679;50.392;8.008;2023-04-24T04:35:03;8.80;99.90
3334;DHT22;1679;50.392;8.008;2023-04-24T04:37:32;8.70;99.90
3334;DHT22;1679;50.392;8.008;2023-04-24T04:40:02;8.70;99.90
3334;DHT22;1679;50.392;8.008;2023-04-24T04:42:37;8.60;99.90
3334;DHT22;1679;50.392;8.008;2023-04-24T04:45:09;8.60;99.90
3334;DHT22;1679;50.392;8.008;2023-04-24T04:47:37;8.50;99.90
3334;DHT22;1679;50.392;8.008;2023-04-24T04:50:03;8.50;99.90
3334;DHT22;1679;50.392;8.008;2023-04-24T04:52:29;8.50;99.90
3334;DHT22;1679;50.392;8.008;2023-04-24T04:54:55;8.40;99.90
3334;DHT22;1679;50.392;8.008;2023-04-24T04:57:20;8.40;99.90
3334;DHT22;1679;50.392;8.008;2023-04-24T04:59:46;8.40;99.90
3334;DHT22;1679;50.392;8.008;2023-04-24T05:02:12;8.40;99.90
3334;DHT22;1679;50.392;8.008;2023-04-24T05:04:37;8.40;99.90
3334;DHT22;1679;50.392;8.008;2023-04-24T05:07:03;8.40;99.90
3334;DHT22;1679;50.392;8.008;2023-04-24T05:09:28;8.40;99.90
3334;DHT22;1679;50.392;8.008;2023-04-24T05:11:55;8.40;99.90
3334;DHT22;1679;50.392;8.008;2023-04-24T05:14:21;8.40;99.90
3334;DHT22;1679;50.392;8.008;2023-04-24T05:16:47;8.40;99.90
3334;DHT22;1679;50.392;8.008;2023-04-24T05:19:13;8.40;99.90
3334;DHT22;1679;50.392;8.008;2023-04-24T05:21:39;8.40;99.90
3334;DHT22;1679;50.392;8.008;2023-04-24T05:24:06;8.50;99.90
3334;DHT22;1679;50.392;8.008;2023-04-24T05:26:32;8.50;99.90
3334;DHT22;1679;50.392;8.008;2023-04-24T05:28:57;8.50;99.90
3334;DHT22;1679;50.392;8.008;2023-04-24T05:31:23;8.50;99.90
3334;DHT22;1679;50.392;8.008;2023-04-24T05:33:48;8.50;99.90
3334;DHT22;1679;50.392;8.008;2023-04-24T05:36:14;8.60;99.90
3334;DHT22;1679;50.392;8.008;2023-04-24T05:38:40;8.60;99.90
3334;DHT22;1679;50.392;8.008;2023-04-24T05:41:05;8.70;99.90
3334;DHT22;1679;50.392;8.008;2023-04-24T05:43:31;8.70;99.90
3334;DHT22;1679;50.392;8.008;2023-04-24T05:45:56;8.80;99.90
3334;DHT22;1679;50.392;8.008;2023-04-24T05:48:22;8.80;99.90
3334;DHT22;1679;50.392;8.008;2023-04-24T05:50:48;8.80;99.90
3334;DHT22;1679;50.392;8.008;2023-04-24T05:53:14;8.90;99.90
3334;DHT22;1679;50.392;8.008;2023-04-24T05:55:41;8.90;99.90
3334;DHT22;1679;50.392;8.008;2023-04-24T05:58:06;8.90;99.90
3334;DHT22;1679;50.392;8.008;2023-04-24T06:00:32;8.90;99.90
3334;DHT22;1679;50.392;8.008;2023-04-24T06:02:59;9.00;99.90
3334;DHT22;1679;50.392;8.008;2023-04-24T06:05:25;9.00;99.90
3334;DHT22;1679;50.392;8.008;2023-04-24T06:07:51;9.10;99.90
3334;DHT22;1679;50.392;8.008;2023-04-24T06:10:17;9.10;99.90
3334;DHT22;1679;50.392;8.008;2023-04-24T06:12:42;9.20;99.90
3334;DHT22;1679;50.392;8.008;2023-04-24T06:15:08;9.30;99.90
3334;DHT22;1679;50.392;8.008;2023-04-24T06:17:34;9.40;99.90
3334;DHT22;1679;50.392;8.008;2023-04-24T06:20:01;9.70;99.90
3334;DHT22;1679;50.392;8.008;2023-04-24T06:22:28;9.80;99.90
3334;DHT22;1679;50.392;8.008;2023-04-24T06:24:55;9.90;99.90
3334;DHT22;1679;50.392;8.008;2023-04-24T06:27:20;9.80;99.90
3334;DHT22;1679;50.392;8.008;2023-04-24T06:29:46;9.80;99.90
3334;DHT22;1679;50.392;8.008;2023-04-24T06:32:18;9.70;99.90
3334;DHT22;1679;50.392;8.008;2023-04-24T06:34:43;9.80;99.90
3334;DHT22;1679;50.392;8.008;2023-04-24T06:37:09;9.80;99.90
3334;DHT22;1679;50.392;8.008;2023-04-24T06:39:34;9.80;99.90
3334;DHT22;1679;50.392;8.008;2023-04-24T06:42:00;9.90;99.90
3334;DHT22;1679;50.392;8.008;2023-04-24T06:44:25;9.90;99.90
3334;DHT22;1679;50.392;8.008;2023-04-24T06:46:51;9.90;99.90
3334;DHT22;1679;50.392;8.008;2023-04-24T06:49:16;9.80;99.90
3334;DHT22;1679;50.392;8.008;2023-04-24T06:51:42;9.80;99.90
3334;DHT22;1679;50.392;8.008;2023-04-24T06:54:08;9.90;99.90
3334;DHT22;1679;50.392;8.008;2023-04-24T06:56:34;10.00;99.90
3334;DHT22;1679;50.392;8.008;2023-04-24T06:58:59;10.10;99.90
3334;DHT22;1679;50.392;8.008;2023-04-24T07:01:25;10.20;99.90
3334;DHT22;1679;50.392;8.008;2023-04-24T07:03:50;10.40;99.90
3334;DHT22;1679;50.392;8.008;2023-04-24T07:06:16;10.50;99.90
3334;DHT22;1679;50.392;8.008;2023-04-24T07:08:43;10.80;99.90
3334;DHT22;1679;50.392;8.008;2023-04-24T07:11:09;10.90;99.90
3334;DHT22;1679;50.392;8.008;2023-04-24T07:13:34;11.00;99.90
3334;DHT22;1679;50.392;8.008;2023-04-24T07:16:00;11.30;99.90
3334;DHT22;1679;50.392;8.008;2023-04-24T07:18:26;11.60;99.90
3334;DHT22;1679;50.392;8.008;2023-04-24T07:20:51;11.60;99.90
3334;DHT22;1679;50.392;8.008;2023-04-24T07:23:17;11.80;99.90
3334;DHT22;1679;50.392;8.008;2023-04-24T07:25:43;11.90;99.90
3334;DHT22;1679;50.392;8.008;2023-04-24T07:28:09;12.10;99.90
3334;DHT22;1679;50.392;8.008;2023-04-24T07:30:35;12.10;99.90
3334;DHT22;1679;50.392;8.008;2023-04-24T07:33:00;12.20;99.90
3334;DHT22;1679;50.392;8.008;2023-04-24T07:35:26;12.10;99.90
3334;DHT22;1679;50.392;8.008;2023-04-24T07:37:55;12.20;99.90
3334;DHT22;1679;50.392;8.008;2023-04-24T07:40:21;12.10;99.90
3334;DHT22;1679;50.392;8.008;2023-04-24T07:42:47;12.00;99.90
3334;DHT22;1679;50.392;8.008;2023-04-24T07:45:14;11.80;99.90
3334;DHT22;1679;50.392;8.008;2023-04-24T07:47:42;11.60;99.90
3334;DHT22;1679;50.392;8.008;2023-04-24T07:50:09;11.60;99.90
3334;DHT22;1679;50.392;8.008;2023-04-24T07:52:35;11.60;99.90
3334;DHT22;1679;50.392;8.008;2023-04-24T07:55:01;11.60;99.90
3334;DHT22;1679;50.392;8.008;2023-04-24T07:57:27;11.40;99.90
3334;DHT22;1679;50.392;8.008;2023-04-24T07:59:53;11.40;99.90
3334;DHT22;1679;50.392;8.008;2023-04-24T08:02:19;11.30;99.90
3334;DHT22;1679;50.392;8.008;2023-04-24T08:04:47;11.30;99.90
3334;DHT22;1679;50.392;8.008;2023-04-24T08:07:12;11.30;99.90
3334;DHT22;1679;50.392;8.008;2023-04-24T08:09:38;11.30;99.90
3334;DHT22;1679;50.392;8.008;2023-04-24T08:12:04;11.20;99.90
3334;DHT22;1679;50.392;8.008;2023-04-24T08:14:30;11.30;99.90
3334;DHT22;1679;50.392;8.008;2023-04-24T08:16:56;11.40;99.90
3334;DHT22;1679;50.392;8.008;2023-04-24T08:19:21;11.40;99.90
3334;DHT22;1679;50.392;8.008;2023-04-24T08:21:47;11.40;99.90
3334;DHT22;1679;50.392;8.008;2023-04-24T08:24:13;11.50;99.90
3334;DHT22;1679;50.392;8.008;2023-04-24T08:26:38;11.40;99.90
3334;DHT22;1679;50.392;8.008;2023-04-24T08:29:04;11.20;99.90
3334;DHT22;1679;50.392;8.008;2023-04-24T08:31:31;11.20;99.90
3334;DHT22;1679;50.392;8.008;2023-04-24T08:33:56;11.20;99.90
3334;DHT22;1679;50.392;8.008;2023-04-24T08:36:22;11.30;99.90
3334;DHT22;1679;50.392;8.008;2023-04-24T08:38:47;11.40;99.90
3334;DHT22;1679;50.392;8.008;2023-04-24T08:41:14;11.50;99.90
3334;DHT22;1679;50.392;8.008;2023-04-24T08:43:41;11.50;99.90
3334;DHT22;1679;50.392;8.008;2023-04-24T08:46:07;11.50;99.90
3334;DHT22;1679;50.392;8.008;2023-04-24T08:48:34;11.40;99.90
3334;DHT22;1679;50.392;8.008;2023-04-24T08:50:59;11.60;99.90
3334;DHT22;1679;50.392;8.008;2023-04-24T08:53:26;11.70;99.90
3334;DHT22;1679;50.392;8.008;2023-04-24T08:55:54;11.60;99.90
3334;DHT22;1679;50.392;8.008;2023-04-24T08:58:20;11.50;99.90
3334;DHT22;1679;50.392;8.008;2023-04-24T09:00:46;11.40;99.90
3334;DHT22;1679;50.392;8.008;2023-04-24T09:03:16;11.30;99.90
3334;DHT22;1679;50.392;8.008;2023-04-24T09:05:46;11.30;99.90
3334;DHT22;1679;50.392;8.008;2023-04-24T09:08:19;11.30;99.90
3334;DHT22;1679;50.392;8.008;2023-04-24T09:10:45;11.30;99.90
3334;DHT22;1679;50.392;8.008;2023-04-24T09:13:11;11.50;99.90
3334;DHT22;1679;50.392;8.008;2023-04-24T09:15:38;11.60;99.90
3334;DHT22;1679;50.392;8.008;2023-04-24T09:18:04;11.80;99.90
3334;DHT22;1679;50.392;8.008;2023-04-24T09:20:31;11.90;99.90
3334;DHT22;1679;50.392;8.008;2023-04-24T09:22:57;12.10;99.90
3334;DHT22;1679;50.392;8.008;2023-04-24T09:25:33;12.00;99.90
3334;DHT22;1679;50.392;8.008;2023-04-24T09:28:04;11.80;99.90
3334;DHT22;1679;50.392;8.008;2023-04-24T09:30:30;11.70;99.90
3334;DHT22;1679;50.392;8.008;2023-04-24T09:33:15;11.70;99.90
3334;DHT22;1679;50.392;8.008;2023-04-24T09:35:42;11.70;99.90
3334;DHT22;1679;50.392;8.008;2023-04-24T09:38:08;11.70;99.90
3334;DHT22;1679;50.392;8.008;2023-04-24T09:40:35;11.60;99.90
3334;DHT22;1679;50.392;8.008;2023-04-24T09:43:01;11.60;99.90
3334;DHT22;1679;50.392;8.008;2023-04-24T09:45:38;11.70;99.90
3334;DHT22;1679;50.392;8.008;2023-04-24T09:48:04;11.80;99.90
3334;DHT22;1679;50.392;8.008;2023-04-24T09:50:32;11.80;99.90
3334;DHT22;1679;50.392;8.008;2023-04-24T09:53:02;11.80;99.90
3334;DHT22;1679;50.392;8.008;2023-04-24T09:55:28;11.80;99.90
3334;DHT22;1679;50.392;8.008;2023-04-24T09:57:55;11.50;99.90
3334;DHT22;1679;50.392;8.008;2023-04-24T10:00:32;11.30;99.90
3334;DHT22;1679;50.392;8.008;2023-04-24T10:02:59;11.30;99.90
3334;DHT22;1679;50.392;8.008;2023-04-24T10:05:31;11.10;99.90
3334;DHT22;1679;50.392;8.008;2023-04-24T10:08:08;11.00;99.90
3334;DHT22;1679;50.392;8.008;2023-04-24T10:10:37;10.90;99.90
3334;DHT22;1679;50.392;8.008;2023-04-24T10:13:04;10.70;99.90
3334;DHT22;1679;50.392;8.008;2023-04-24T10:15:30;10.40;99.90
3334;DHT22;1679;50.392;8.008;2023-04-24T10:17:59;10.10;99.90
3334;DHT22;1679;50.392;8.008;2023-04-24T10:20:26;9.90;99.90
3334;DHT22;1679;50.392;8.008;2023-04-24T10:22:55;9.80;99.90
3334;DHT22;1679;50.392;8.008;2023-04-24T10:25:23;9.90;99.90
3334;DHT22;1679;50.392;8.008;2023-04-24T10:27:50;9.90;99.90
3334;DHT22;1679;50.392;8.008;2023-04-24T10:30:16;10.20;99.90
3334;DHT22;1679;50.392;8.008;2023-04-24T10:32:42;10.50;99.90
3334;DHT22;1679;50.392;8.008;2023-04-24T10:35:09;10.90;99.90
3334;DHT22;1679;50.392;8.008;2023-04-24T10:37:38;11.20;99.90
3334;DHT22;1679;50.392;8.008;2023-04-24T10:40:06;11.50;99.90
3334;DHT22;1679;50.392;8.008;2023-04-24T10:42:33;11.80;99.90
3334;DHT22;1679;50.392;8.008;2023-04-24T10:44:58;12.20;99.90
3334;DHT22;1679;50.392;8.008;2023-04-24T10:47:27;12.30;99.90
3334;DHT22;1679;50.392;8.008;2023-04-24T10:49:52;12.40;99.90
3334;DHT22;1679;50.392;8.008;2023-04-24T10:52:19;12.30;99.90
3334;DHT22;1679;50.392;8.008;2023-04-24T10:54:46;12.20;99.90
3334;DHT22;1679;50.392;8.008;2023-04-24T10:59:46;12.30;99.90
3334;DHT22;1679;50.392;8.008;2023-04-24T11:02:16;12.30;99.90
3334;DHT22;1679;50.392;8.008;2023-04-24T11:04:42;12.30;99.90
3334;DHT22;1679;50.392;8.008;2023-04-24T11:07:12;12.50;99.90
3334;DHT22;1679;50.392;8.008;2023-04-24T11:09:38;12.40;99.90
3334;DHT22;1679;50.392;8.008;2023-04-24T11:12:09;12.40;99.90
3334;DHT22;1679;50.392;8.008;2023-04-24T11:14:59;12.00;99.90
3334;DHT22;1679;50.392;8.008;2023-04-24T11:17:36;12.10;99.90
3334;DHT22;1679;50.392;8.008;2023-04-24T11:20:11;12.00;99.90
3334;DHT22;1679;50.392;8.008;2023-04-24T11:22:41;11.80;99.90
3334;DHT22;1679;50.392;8.008;2023-04-24T11:25:07;11.60;99.90
3334;DHT22;1679;50.392;8.008;2023-04-24T11:27:42;11.60;99.90
3334;DHT22;1679;50.392;8.008;2023-04-24T11:30:09;11.50;99.90
3334;DHT22;1679;50.392;8.008;2023-04-24T11:32:41;11.40;99.90
3334;DHT22;1679;50.392;8.008;2023-04-24T11:35:15;11.50;99.90
3334;DHT22;1679;50.392;8.008;2023-04-24T11:37:43;11.60;99.90
3334;DHT22;1679;50.392;8.008;2023-04-24T11:40:12;11.70;99.90
3334;DHT22;1679;50.392;8.008;2023-04-24T11:42:46;11.60;99.90
3334;DHT22;1679;50.392;8.008;2023-04-24T11:45:21;11.40;99.90
3334;DHT22;1679;50.392;8.008;2023-04-24T11:47:47;11.30;99.90
3334;DHT22;1679;50.392;8.008;2023-04-24T11:50:14;11.10;99.90
3334;DHT22;1679;50.392;8.008;2023-04-24T11:52:42;10.90;99.90
3334;DHT22;1679;50.392;8.008;2023-04-24T11:57:49;10.40;99.90
3334;DHT22;1679;50.392;8.008;2023-04-24T12:00:23;10.30;99.90
3334;DHT22;1679;50.392;8.008;2023-04-24T12:02:49;10.20;99.90
3334;DHT22;1679;50.392;8.008;2023-04-24T12:05:25;10.30;99.90
3334;DHT22;1679;50.392;8.008;2023-04-24T12:07:52;10.20;99.90
3334;DHT22;1679;50.392;8.008;2023-04-24T12:10:25;10.10;99.90
3334;DHT22;1679;50.392;8.008;2023-04-24T12:12:51;9.90;99.90
3334;DHT22;1679;50.392;8.008;2023-04-24T12:15:19;10.00;99.90
3334;DHT22;1679;50.392;8.008;2023-04-24T12:17:45;10.20;99.90
3334;DHT22;1679;50.392;8.008;2023-04-24T12:20:12;10.20;99.90
3334;DHT22;1679;50.392;8.008;2023-04-24T12:22:55;10.40;99.90
3334;DHT22;1679;50.392;8.008;2023-04-24T12:25:25;10.40;99.90
3334;DHT22;1679;50.392;8.008;2023-04-24T12:28:13;10.50;99.90
3334;DHT22;1679;50.392;8.008;2023-04-24T12:30:44;10.70;99.90
3334;DHT22;1679;50.392;8.008;2023-04-24T12:33:17;10.90;99.90
3334;DHT22;1679;50.392;8.008;2023-04-24T12:35:43;10.90;99.90
3334;DHT22;1679;50.392;8.008;2023-04-24T12:38:10;11.00;99.90
3334;DHT22;1679;50.392;8.008;2023-04-24T12:40:36;11.00;99.90
3334;DHT22;1679;50.392;8.008;2023-04-24T12:43:16;11.10;99.90
3334;DHT22;1679;50.392;8.008;2023-04-24T12:45:42;11.20;99.90
3334;DHT22;1679;50.392;8.008;2023-04-24T12:48:08;11.20;99.90
3334;DHT22;1679;50.392;8.008;2023-04-24T12:50:33;11.50;99.90
3334;DHT22;1679;50.392;8.008;2023-04-24T12:53:00;11.60;99.90
3334;DHT22;1679;50.392;8.008;2023-04-24T12:55:25;11.70;99.90
3334;DHT22;1679;50.392;8.008;2023-04-24T12:57:51;11.80;99.90
3334;DHT22;1679;50.392;8.008;2023-04-24T13:00:17;11.90;99.90
3334;DHT22;1679;50.392;8.008;2023-04-24T13:02:43;11.90;99.90
3334;DHT22;1679;50.392;8.008;2023-04-24T13:05:08;12.00;99.90
3334;DHT22;1679;50.392;8.008;2023-04-24T13:07:34;12.00;99.90
3334;DHT22;1679;50.392;8.008;2023-04-24T13:10:00;11.80;99.90
3334;DHT22;1679;50.392;8.008;2023-04-24T13:12:25;11.70;99.90
3334;DHT22;1679;50.392;8.008;2023-04-24T13:14:52;11.60;99.90
3334;DHT22;1679;50.392;8.008;2023-04-24T13:17:17;11.60;99.90
3334;DHT22;1679;50.392;8.008;2023-04-24T13:19:43;11.60;99.90
3334;DHT22;1679;50.392;8.008;2023-04-24T13:22:11;11.60;99.90
3334;DHT22;1679;50.392;8.008;2023-04-24T13:24:37;11.70;99.90
3334;DHT22;1679;50.392;8.008;2023-04-24T13:27:04;11.70;99.90
3334;DHT22;1679;50.392;8.008;2023-04-24T13:29:29;11.80;99.90
3334;DHT22;1679;50.392;8.008;2023-04-24T13:31:55;11.80;99.90
3334;DHT22;1679;50.392;8.008;2023-04-24T13:34:23;11.60;99.90
3334;DHT22;1679;50.392;8.008;2023-04-24T13:36:54;11.60;99.90
3334;DHT22;1679;50.392;8.008;2023-04-24T13:39:20;11.60;99.90
3334;DHT22;1679;50.392;8.008;2023-04-24T13:41:46;11.60;99.90
3334;DHT22;1679;50.392;8.008;2023-04-24T13:44:14;11.30;99.90
3334;DHT22;1679;50.392;8.008;2023-04-24T13:46:40;11.30;99.90
3334;DHT22;1679;50.392;8.008;2023-04-24T13:49:05;11.20;99.90
3334;DHT22;1679;50.392;8.008;2023-04-24T13:51:33;11.20;99.90
3334;DHT22;1679;50.392;8.008;2023-04-24T13:53:58;11.10;99.90
3334;DHT22;1679;50.392;8.008;2023-04-24T13:56:25;11.00;99.90
3334;DHT22;1679;50.392;8.008;2023-04-24T13:58:51;10.90;99.90
3334;DHT22;1679;50.392;8.008;2023-04-24T14:01:16;10.90;99.90
3334;DHT22;1679;50.392;8.008;2023-04-24T14:03:42;10.90;99.90
3334;DHT22;1679;50.392;8.008;2023-04-24T14:06:11;10.80;99.90
3334;DHT22;1679;50.392;8.008;2023-04-24T14:08:36;10.80;99.90
3334;DHT22;1679;50.392;8.008;2023-04-24T14:11:04;10.90;99.90
3334;DHT22;1679;50.392;8.008;2023-04-24T14:13:29;11.10;99.90
3334;DHT22;1679;50.392;8.008;2023-04-24T14:15:55;11.50;99.90
3334;DHT22;1679;50.392;8.008;2023-04-24T14:18:21;11.70;99.90
3334;DHT22;1679;50.392;8.008;2023-04-24T14:20:47;11.80;99.90
3334;DHT22;1679;50.392;8.008;2023-04-24T14:23:12;12.00;99.90
3334;DHT22;1679;50.392;8.008;2023-04-24T14:25:38;12.00;99.90
3334;DHT22;1679;50.392;8.008;2023-04-24T14:28:05;12.20;99.90
3334;DHT22;1679;50.392;8.008;2023-04-24T14:30:31;12.30;99.90
3334;DHT22;1679;50.392;8.008;2023-04-24T14:32:56;12.50;99.90
3334;DHT22;1679;50.392;8.008;2023-04-24T14:35:23;12.60;99.90
3334;DHT22;1679;50.392;8.008;2023-04-24T14:37:48;12.50;99.90
3334;DHT22;1679;50.392;8.008;2023-04-24T14:40:14;12.40;99.90
3334;DHT22;1679;50.392;8.008;2023-04-24T14:42:40;12.50;99.90
3334;DHT22;1679;50.392;8.008;2023-04-24T14:45:06;12.50;99.90
3334;DHT22;1679;50.392;8.008;2023-04-24T14:47:33;12.50;99.90
3334;DHT22;1679;50.392;8.008;2023-04-24T14:49:58;12.50;99.90
3334;DHT22;1679;50.392;8.008;2023-04-24T14:52:23;12.50;99.90
3334;DHT22;1679;50.392;8.008;2023-04-24T14:54:50;12.40;99.90
3334;DHT22;1679;50.392;8.008;2023-04-24T14:57:16;12.20;99.90
3334;DHT22;1679;50.392;8.008;2023-04-24T14:59:41;11.90;99.90
3334;DHT22;1679;50.392;8.008;2023-04-24T15:02:07;11.60;99.90
3334;DHT22;1679;50.392;8.008;2023-04-24T15:04:32;11.50;99.90
3334;DHT22;1679;50.392;8.008;2023-04-24T15:06:57;11.40;99.90
3334;DHT22;1679;50.392;8.008;2023-04-24T15:09:24;11.30;99.90
3334;DHT22;1679;50.392;8.008;2023-04-24T15:11:50;11.20;99.90
3334;DHT22;1679;50.392;8.008;2023-04-24T15:14:17;11.10;99.90
3334;DHT22;1679;50.392;8.008;2023-04-24T15:16:42;11.00;99.90
3334;DHT22;1679;50.392;8.008;2023-04-24T15:19:08;10.90;99.90
3334;DHT22;1679;50.392;8.008;2023-04-24T15:21:35;10.80;99.90
3334;DHT22;1679;50.392;8.008;2023-04-24T15:24:00;10.80;99.90
3334;DHT22;1679;50.392;8.008;2023-04-24T15:26:26;10.80;99.90
3334;DHT22;1679;50.392;8.008;2023-04-24T15:28:53;10.80;99.90
3334;DHT22;1679;50.392;8.008;2023-04-24T15:31:19;10.80;99.90
3334;DHT22;1679;50.392;8.008;2023-04-24T15:33:45;10.80;99.90
3334;DHT22;1679;50.392;8.008;2023-04-24T15:36:10;10.80;99.90
3334;DHT22;1679;50.392;8.008;2023-04-24T15:38:37;10.90;99.90
3334;DHT22;1679;50.392;8.008;2023-04-24T15:41:02;11.00;99.90
3334;DHT22;1679;50.392;8.008;2023-04-24T15:43:28;11.10;99.90
3334;DHT22;1679;50.392;8.008;2023-04-24T15:45:59;11.00;99.90
3334;DHT22;1679;50.392;8.008;2023-04-24T15:48:25;10.90;99.90
3334;DHT22;1679;50.392;8.008;2023-04-24T15:50:52;10.90;99.90
3334;DHT22;1679;50.392;8.008;2023-04-24T15:53:17;10.80;99.90
3334;DHT22;1679;50.392;8.008;2023-04-24T15:55:47;10.70;99.90
3334;DHT22;1679;50.392;8.008;2023-04-24T15:58:12;10.70;99.90
3334;DHT22;1679;50.392;8.008;2023-04-24T16:00:38;10.60;99.90
3334;DHT22;1679;50.392;8.008;2023-04-24T16:03:03;10.60;99.90
3334;DHT22;1679;50.392;8.008;2023-04-24T16:05:29;10.70;99.90
3334;DHT22;1679;50.392;8.008;2023-04-24T16:07:55;10.80;99.90